sensor_id;sensor_type;location;lat;lon;timestamp;pressure;altitude;pressure_sealevel;temperature;humidity
40918;BME280;26644;50.248;19.032;2023-03-01T00:00:38;99328.34;;;-1.52;65.40
40918;BME280;26644;50.248;19.032;2023-03-01T00:03:52;99322.47;;;-1.55;65.36
40918;BME280;26644;50.248;19.032;2023-03-01T00:06:57;99323.31;;;-1.55;65.45
40918;BME280;26644;50.248;19.032;2023-03-01T00:10:04;99326.19;;;-1.57;65.38
40918;BME280;26644;50.248;19.032;2023-03-01T00:13:10;99328.22;;;-1.59;65.82
40918;BME280;26644;50.248;19.032;2023-03-01T00:16:17;99314.16;;;-1.69;65.76
40918;BME280;26644;50.248;19.032;2023-03-01T00:19:26;99322.34;;;-1.62;65.95
40918;BME280;26644;50.248;19.032;2023-03-01T00:22:32;99314.50;;;-1.72;66.09
40918;BME280;26644;50.248;19.032;2023-03-01T00:25:41;99317.66;;;-1.68;66.13
40918;BME280;26644;50.248;19.032;2023-03-01T00:28:47;99319.53;;;-1.69;66.43
40918;BME280;26644;50.248;19.032;2023-03-01T00:31:52;99310.16;;;-1.73;66.00
40918;BME280;26644;50.248;19.032;2023-03-01T00:35:01;99311.66;;;-1.79;66.42
40918;BME280;26644;50.248;19.032;2023-03-01T00:38:07;99290.25;;;-1.95;66.44
40918;BME280;26644;50.248;19.032;2023-03-01T00:41:15;99294.50;;;-2.01;67.01
40918;BME280;26644;50.248;19.032;2023-03-01T00:44:21;99314.41;;;-1.87;67.35
40918;BME280;26644;50.248;19.032;2023-03-01T00:47:28;99311.72;;;-1.87;67.08
40918;BME280;26644;50.248;19.032;2023-03-01T00:50:36;99308.53;;;-1.91;66.99
40918;BME280;26644;50.248;19.032;2023-03-01T00:53:43;99299.16;;;-1.95;67.31
40918;BME280;26644;50.248;19.032;2023-03-01T00:56:49;99303.03;;;-1.97;67.44
40918;BME280;26644;50.248;19.032;2023-03-01T00:59:54;99296.81;;;-1.98;67.46
40918;BME280;26644;50.248;19.032;2023-03-01T01:03:00;99279.22;;;-2.09;67.34
40918;BME280;26644;50.248;19.032;2023-03-01T01:06:13;99289.25;;;-2.02;67.44
40918;BME280;26644;50.248;19.032;2023-03-01T01:09:22;99278.22;;;-2.08;67.47
40918;BME280;26644;50.248;19.032;2023-03-01T01:12:29;99291.94;;;-2.02;67.82
40918;BME280;26644;50.248;19.032;2023-03-01T01:15:34;99291.31;;;-2.04;67.47
40918;BME280;26644;50.248;19.032;2023-03-01T01:18:40;99282.03;;;-2.02;67.34
40918;BME280;26644;50.248;19.032;2023-03-01T01:21:49;99282.88;;;-2.01;67.67
40918;BME280;26644;50.248;19.032;2023-03-01T01:24:55;99283.41;;;-2.06;67.55
40918;BME280;26644;50.248;19.032;2023-03-01T01:28:00;99274.34;;;-2.13;68.10
40918;BME280;26644;50.248;19.032;2023-03-01T01:31:06;99274.16;;;-2.12;68.00
40918;BME280;26644;50.248;19.032;2023-03-01T01:34:15;99270.16;;;-2.16;68.30
40918;BME280;26644;50.248;19.032;2023-03-01T01:37:25;99276.72;;;-2.18;68.33
40918;BME280;26644;50.248;19.032;2023-03-01T01:40:32;99277.28;;;-2.23;68.88
40918;BME280;26644;50.248;19.032;2023-03-01T01:43:40;99275.59;;;-2.24;68.81
40918;BME280;26644;50.248;19.032;2023-03-01T01:46:50;99275.59;;;-2.24;68.51
40918;BME280;26644;50.248;19.032;2023-03-01T01:49:59;99261.31;;;-2.25;68.92
40918;BME280;26644;50.248;19.032;2023-03-01T01:53:10;99255.44;;;-2.28;68.86
40918;BME280;26644;50.248;19.032;2023-03-01T01:56:21;99243.34;;;-2.32;68.88
40918;BME280;26644;50.248;19.032;2023-03-01T01:59:32;99247.06;;;-2.33;68.83
40918;BME280;26644;50.248;19.032;2023-03-01T02:02:41;99244.38;;;-2.33;69.04
40918;BME280;26644;50.248;19.032;2023-03-01T02:05:55;99245.03;;;-2.31;68.94
40918;BME280;26644;50.248;19.032;2023-03-01T02:09:13;99244.38;;;-2.33;68.71
40918;BME280;26644;50.248;19.032;2023-03-01T02:12:23;99250.41;;;-2.31;69.02
40918;BME280;26644;50.248;19.032;2023-03-01T02:15:33;99254.13;;;-2.32;69.15
40918;BME280;26644;50.248;19.032;2023-03-01T02:18:42;99238.16;;;-2.34;69.14
40918;BME280;26644;50.248;19.032;2023-03-01T02:21:57;99236.97;;;-2.39;69.31
40918;BME280;26644;50.248;19.032;2023-03-01T02:25:26;99257.03;;;-2.42;69.43
40918;BME280;26644;50.248;19.032;2023-03-01T02:28:40;99254.16;;;-2.41;69.06
40918;BME280;26644;50.248;19.032;2023-03-01T02:31:49;99254.50;;;-2.44;69.15
40918;BME280;26644;50.248;19.032;2023-03-01T02:34:58;99267.94;;;-2.44;69.17
40918;BME280;26644;50.248;19.032;2023-03-01T02:38:09;99262.25;;;-2.49;69.14
40918;BME280;26644;50.248;19.032;2023-03-01T02:41:16;99246.00;;;-2.64;69.48
40918;BME280;26644;50.248;19.032;2023-03-01T02:44:26;99260.59;;;-2.58;69.42
40918;BME280;26644;50.248;19.032;2023-03-01T02:47:32;99250.16;;;-2.53;69.69
40918;BME280;26644;50.248;19.032;2023-03-01T02:50:52;99250.47;;;-2.48;69.40
40918;BME280;26644;50.248;19.032;2023-03-01T02:54:23;99258.38;;;-2.46;69.36
40918;BME280;26644;50.248;19.032;2023-03-01T02:57:37;99260.22;;;-2.47;69.28
40918;BME280;26644;50.248;19.032;2023-03-01T03:00:48;99257.91;;;-2.50;69.07
40918;BME280;26644;50.248;19.032;2023-03-01T03:03:54;99250.84;;;-2.51;68.94
40918;BME280;26644;50.248;19.032;2023-03-01T03:07:00;99262.09;;;-2.47;68.89
40918;BME280;26644;50.248;19.032;2023-03-01T03:10:09;99252.53;;;-2.50;68.66
40918;BME280;26644;50.248;19.032;2023-03-01T03:13:17;99253.47;;;-2.43;68.66
40918;BME280;26644;50.248;19.032;2023-03-01T03:16:26;99257.34;;;-2.45;68.52
40918;BME280;26644;50.248;19.032;2023-03-01T03:19:31;99255.16;;;-2.42;68.60
40918;BME280;26644;50.248;19.032;2023-03-01T03:22:37;99231.50;;;-2.54;68.32
40918;BME280;26644;50.248;19.032;2023-03-01T03:25:44;99241.41;;;-2.47;68.70
40918;BME280;26644;50.248;19.032;2023-03-01T03:28:52;99211.88;;;-2.55;68.76
40918;BME280;26644;50.248;19.032;2023-03-01T03:32:01;99224.44;;;-2.47;68.88
40918;BME280;26644;50.248;19.032;2023-03-01T03:35:08;99217.28;;;-2.63;68.70
40918;BME280;26644;50.248;19.032;2023-03-01T03:38:16;99232.00;;;-2.51;69.42
40918;BME280;26644;50.248;19.032;2023-03-01T03:41:23;99222.13;;;-2.59;68.86
40918;BME280;26644;50.248;19.032;2023-03-01T03:44:28;99219.84;;;-2.70;69.47
40918;BME280;26644;50.248;19.032;2023-03-01T03:47:36;99215.31;;;-2.78;69.39
40918;BME280;26644;50.248;19.032;2023-03-01T03:50:48;99224.56;;;-2.80;69.61
40918;BME280;26644;50.248;19.032;2023-03-01T03:53:54;99224.06;;;-2.84;69.90
40918;BME280;26644;50.248;19.032;2023-03-01T03:56:59;99233.13;;;-2.85;70.00
40918;BME280;26644;50.248;19.032;2023-03-01T04:00:07;99222.59;;;-2.95;70.00
40918;BME280;26644;50.248;19.032;2023-03-01T04:03:20;99234.84;;;-2.92;70.07
40918;BME280;26644;50.248;19.032;2023-03-01T04:06:25;99234.34;;;-2.96;70.47
40918;BME280;26644;50.248;19.032;2023-03-01T04:09:31;99226.28;;;-2.96;70.38
40918;BME280;26644;50.248;19.032;2023-03-01T04:12:36;99210.34;;;-2.97;70.08
40918;BME280;26644;50.248;19.032;2023-03-01T04:15:42;99228.13;;;-2.88;70.10
40918;BME280;26644;50.248;19.032;2023-03-01T04:18:50;99231.13;;;-2.83;70.04
40918;BME280;26644;50.248;19.032;2023-03-01T04:21:57;99231.78;;;-2.81;69.88
40918;BME280;26644;50.248;19.032;2023-03-01T04:25:02;99224.25;;;-2.85;69.72
40918;BME280;26644;50.248;19.032;2023-03-01T04:28:09;99225.59;;;-2.89;69.60
40918;BME280;26644;50.248;19.032;2023-03-01T04:31:17;99228.25;;;-2.81;69.31
40918;BME280;26644;50.248;19.032;2023-03-01T04:34:27;99221.06;;;-2.89;69.70
40918;BME280;26644;50.248;19.032;2023-03-01T04:37:32;99222.22;;;-2.83;69.83
40918;BME280;26644;50.248;19.032;2023-03-01T04:40:38;99230.13;;;-2.82;69.65
40918;BME280;26644;50.248;19.032;2023-03-01T04:43:44;99220.19;;;-2.81;69.49
40918;BME280;26644;50.248;19.032;2023-03-01T04:46:50;99230.13;;;-2.82;69.37
40918;BME280;26644;50.248;19.032;2023-03-01T04:49:58;99210.00;;;-2.94;69.64
40918;BME280;26644;50.248;19.032;2023-03-01T04:53:03;99222.94;;;-2.89;69.53
40918;BME280;26644;50.248;19.032;2023-03-01T04:56:08;99221.09;;;-2.97;69.75
40918;BME280;26644;50.248;19.032;2023-03-01T04:59:15;99207.00;;;-3.08;70.20
40918;BME280;26644;50.248;19.032;2023-03-01T05:02:23;99206.00;;;-3.06;70.18
40918;BME280;26644;50.248;19.032;2023-03-01T05:05:35;99206.84;;;-3.06;70.13
40918;BME280;26644;50.248;19.032;2023-03-01T05:08:42;99196.97;;;-3.22;70.15
40918;BME280;26644;50.248;19.032;2023-03-01T05:11:48;99187.78;;;-3.36;70.83
40918;BME280;26644;50.248;19.032;2023-03-01T05:14:53;99203.50;;;-3.25;70.83
40918;BME280;26644;50.248;19.032;2023-03-01T05:18:00;99183.41;;;-3.37;70.91
40918;BME280;26644;50.248;19.032;2023-03-01T05:21:09;99205.03;;;-3.30;71.34
40918;BME280;26644;50.248;19.032;2023-03-01T05:24:18;99191.25;;;-3.27;71.57
40918;BME280;26644;50.248;19.032;2023-03-01T05:27:23;99191.59;;;-3.22;71.31
40918;BME280;26644;50.248;19.032;2023-03-01T05:30:29;99184.25;;;-3.28;71.06
40918;BME280;26644;50.248;19.032;2023-03-01T05:33:35;99187.56;;;-3.26;71.07
40918;BME280;26644;50.248;19.032;2023-03-01T05:36:44;99189.47;;;-3.35;71.24
40918;BME280;26644;50.248;19.032;2023-03-01T05:39:49;99189.59;;;-3.36;71.58
40918;BME280;26644;50.248;19.032;2023-03-01T05:42:56;99201.84;;;-3.34;71.38
40918;BME280;26644;50.248;19.032;2023-03-01T05:46:01;99208.72;;;-3.31;71.38
40918;BME280;26644;50.248;19.032;2023-03-01T05:49:07;99213.09;;;-3.30;71.14
40918;BME280;26644;50.248;19.032;2023-03-01T05:52:14;99212.75;;;-3.19;71.64
40918;BME280;26644;50.248;19.032;2023-03-01T05:55:21;99194.16;;;-3.37;71.08
40918;BME280;26644;50.248;19.032;2023-03-01T05:58:26;99221.44;;;-3.09;70.99
40918;BME280;26644;50.248;19.032;2023-03-01T06:01:32;99227.69;;;-3.08;71.12
40918;BME280;26644;50.248;19.032;2023-03-01T06:04:38;99224.47;;;-3.03;71.21
40918;BME280;26644;50.248;19.032;2023-03-01T06:07:46;99221.44;;;-3.00;71.61
40918;BME280;26644;50.248;19.032;2023-03-01T06:10:52;99219.91;;;-2.95;71.25
40918;BME280;26644;50.248;19.032;2023-03-01T06:13:57;99204.97;;;-2.97;71.07
40918;BME280;26644;50.248;19.032;2023-03-01T06:17:02;99230.28;;;-2.75;70.87
40918;BME280;26644;50.248;19.032;2023-03-01T06:20:10;99211.44;;;-2.75;70.51
40918;BME280;26644;50.248;19.032;2023-03-01T06:23:20;99228.19;;;-2.56;70.47
40918;BME280;26644;50.248;19.032;2023-03-01T06:26:25;99219.56;;;-2.52;70.59
40918;BME280;26644;50.248;19.032;2023-03-01T06:29:31;99227.59;;;-2.35;70.37
40918;BME280;26644;50.248;19.032;2023-03-01T06:32:37;99237.75;;;-2.22;70.18
40918;BME280;26644;50.248;19.032;2023-03-01T06:35:43;99233.69;;;-2.18;69.93
40918;BME280;26644;50.248;19.032;2023-03-01T06:38:51;99235.66;;;-2.12;69.88
40918;BME280;26644;50.248;19.032;2023-03-01T06:41:57;99229.22;;;-2.03;69.58
40918;BME280;26644;50.248;19.032;2023-03-01T06:45:06;99225.28;;;-1.92;69.48
40918;BME280;26644;50.248;19.032;2023-03-01T06:48:12;99226.56;;;-1.80;69.22
40918;BME280;26644;50.248;19.032;2023-03-01T06:51:18;99227.31;;;-1.71;69.08
40918;BME280;26644;50.248;19.032;2023-03-01T06:54:26;99230.78;;;-1.62;68.43
40918;BME280;26644;50.248;19.032;2023-03-01T06:57:32;99212.75;;;-1.62;68.23
40918;BME280;26644;50.248;19.032;2023-03-01T07:00:37;99225.72;;;-1.42;67.77
40918;BME280;26644;50.248;19.032;2023-03-01T07:03:45;99227.34;;;-1.33;67.41
40918;BME280;26644;50.248;19.032;2023-03-01T07:06:50;99222.06;;;-1.11;66.69
40918;BME280;26644;50.248;19.032;2023-03-01T07:10:00;99218.53;;;-0.82;66.30
40918;BME280;26644;50.248;19.032;2023-03-01T07:13:04;99220.66;;;-0.32;65.04
40918;BME280;26644;50.248;19.032;2023-03-01T07:16:11;99223.22;;;0.13;64.22
40918;BME280;26644;50.248;19.032;2023-03-01T07:19:16;99224.53;;;0.67;62.79
40918;BME280;26644;50.248;19.032;2023-03-01T07:22:22;99212.78;;;1.09;61.50
40918;BME280;26644;50.248;19.032;2023-03-01T07:25:30;99227.03;;;1.67;60.02
40918;BME280;26644;50.248;19.032;2023-03-01T07:28:35;99210.66;;;1.95;58.05
40918;BME280;26644;50.248;19.032;2023-03-01T07:31:40;99219.47;;;2.24;56.84
40918;BME280;26644;50.248;19.032;2023-03-01T07:34:46;99221.41;;;2.57;55.73
40918;BME280;26644;50.248;19.032;2023-03-01T07:37:51;99219.94;;;2.61;54.46
40918;BME280;26644;50.248;19.032;2023-03-01T07:41:02;99212.22;;;2.78;54.71
40918;BME280;26644;50.248;19.032;2023-03-01T07:44:08;99213.19;;;3.17;54.03
40918;BME280;26644;50.248;19.032;2023-03-01T07:47:14;99206.00;;;3.56;53.58
40918;BME280;26644;50.248;19.032;2023-03-01T07:50:19;99217.81;;;4.14;52.25
40918;BME280;26644;50.248;19.032;2023-03-01T07:53:24;99216.28;;;4.64;50.64
40918;BME280;26644;50.248;19.032;2023-03-01T07:56:32;99225.63;;;5.18;48.98
40918;BME280;26644;50.248;19.032;2023-03-01T07:59:38;99211.72;;;5.64;48.11
40918;BME280;26644;50.248;19.032;2023-03-01T08:02:43;99226.13;;;6.32;47.76
40918;BME280;26644;50.248;19.032;2023-03-01T08:05:48;99216.91;;;6.99;46.17
40918;BME280;26644;50.248;19.032;2023-03-01T08:08:53;99228.41;;;7.72;44.51
40918;BME280;26644;50.248;19.032;2023-03-01T08:12:03;99224.97;;;8.34;42.04
40918;BME280;26644;50.248;19.032;2023-03-01T08:15:10;99229.44;;;9.03;41.02
40918;BME280;26644;50.248;19.032;2023-03-01T08:18:16;99231.38;;;9.81;39.17
40918;BME280;26644;50.248;19.032;2023-03-01T08:21:21;99228.59;;;10.53;37.08
40918;BME280;26644;50.248;19.032;2023-03-01T08:24:27;99228.09;;;11.21;36.75
40918;BME280;26644;50.248;19.032;2023-03-01T08:27:35;99228.75;;;11.91;35.68
40918;BME280;26644;50.248;19.032;2023-03-01T08:30:41;99233.06;;;12.40;33.98
40918;BME280;26644;50.248;19.032;2023-03-01T08:33:46;99234.78;;;12.83;32.59
40918;BME280;26644;50.248;19.032;2023-03-01T08:36:57;99207.22;;;13.03;31.81
40918;BME280;26644;50.248;19.032;2023-03-01T08:40:02;99216.56;;;13.49;31.61
40918;BME280;26644;50.248;19.032;2023-03-01T08:43:12;99231.38;;;13.78;30.82
40918;BME280;26644;50.248;19.032;2023-03-01T08:46:16;99213.38;;;13.91;30.49
40918;BME280;26644;50.248;19.032;2023-03-01T08:49:22;99214.09;;;14.13;30.24
40918;BME280;26644;50.248;19.032;2023-03-01T08:52:28;99215.50;;;14.10;29.61
40918;BME280;26644;50.248;19.032;2023-03-01T08:55:33;99224.53;;;14.26;29.45
40918;BME280;26644;50.248;19.032;2023-03-01T08:58:44;99227.84;;;14.28;28.89
40918;BME280;26644;50.248;19.032;2023-03-01T09:01:51;99211.34;;;14.13;28.39
40918;BME280;26644;50.248;19.032;2023-03-01T09:04:55;99196.34;;;13.69;27.89
40918;BME280;26644;50.248;19.032;2023-03-01T09:08:01;99207.47;;;13.48;28.92
40918;BME280;26644;50.248;19.032;2023-03-01T09:11:09;99209.38;;;13.42;28.69
40918;BME280;26644;50.248;19.032;2023-03-01T09:14:20;99212.72;;;13.39;28.89
40918;BME280;26644;50.248;19.032;2023-03-01T09:17:25;99212.16;;;13.42;29.04
40918;BME280;26644;50.248;19.032;2023-03-01T09:20:31;99212.72;;;13.44;28.58
40918;BME280;26644;50.248;19.032;2023-03-01T09:23:38;99221.56;;;13.31;28.33
40918;BME280;26644;50.248;19.032;2023-03-01T09:26:45;99219.91;;;13.04;28.77
40918;BME280;26644;50.248;19.032;2023-03-01T09:29:53;99223.47;;;13.00;29.27
40918;BME280;26644;50.248;19.032;2023-03-01T09:33:00;99203.63;;;12.72;29.55
40918;BME280;26644;50.248;19.032;2023-03-01T09:36:07;99207.78;;;12.90;28.70
40918;BME280;26644;50.248;19.032;2023-03-01T09:39:16;99213.84;;;13.02;28.85
40918;BME280;26644;50.248;19.032;2023-03-01T09:42:21;99214.66;;;13.08;29.15
40918;BME280;26644;50.248;19.032;2023-03-01T09:45:34;99199.78;;;13.14;29.61
40918;BME280;26644;50.248;19.032;2023-03-01T09:48:46;99204.13;;;13.51;28.95
40918;BME280;26644;50.248;19.032;2023-03-01T09:51:59;99198.84;;;13.65;28.90
40918;BME280;26644;50.248;19.032;2023-03-01T09:55:13;99174.56;;;13.67;28.82
40918;BME280;26644;50.248;19.032;2023-03-01T09:58:37;99194.59;;;13.93;28.56
40918;BME280;26644;50.248;19.032;2023-03-01T10:02:02;99197.06;;;13.95;28.43
40918;BME280;26644;50.248;19.032;2023-03-01T10:05:54;99202.88;;;13.93;28.44
40918;BME280;26644;50.248;19.032;2023-03-01T10:09:10;99194.47;;;13.59;28.38
40918;BME280;26644;50.248;19.032;2023-03-01T10:12:24;99188.44;;;13.21;28.72
40918;BME280;26644;50.248;19.032;2023-03-01T10:15:41;99194.00;;;12.80;28.84
40918;BME280;26644;50.248;19.032;2023-03-01T10:19:03;99187.03;;;12.15;29.65
40918;BME280;26644;50.248;19.032;2023-03-01T10:22:14;99184.16;;;11.26;30.42
40918;BME280;26644;50.248;19.032;2023-03-01T10:25:38;99176.06;;;10.44;31.51
40918;BME280;26644;50.248;19.032;2023-03-01T10:29:01;99169.00;;;9.71;32.58
40918;BME280;26644;50.248;19.032;2023-03-01T10:32:10;99174.75;;;9.08;33.57
40918;BME280;26644;50.248;19.032;2023-03-01T10:35:22;99151.53;;;8.43;34.29
40918;BME280;26644;50.248;19.032;2023-03-01T10:38:31;99164.22;;;8.03;34.69
40918;BME280;26644;50.248;19.032;2023-03-01T10:42:00;99146.59;;;7.41;35.58
40918;BME280;26644;50.248;19.032;2023-03-01T10:45:30;99167.88;;;7.04;35.76
40918;BME280;26644;50.248;19.032;2023-03-01T10:48:36;99154.47;;;6.78;36.48
40918;BME280;26644;50.248;19.032;2023-03-01T10:51:46;99145.78;;;6.58;37.09
40918;BME280;26644;50.248;19.032;2023-03-01T10:54:56;99153.03;;;6.52;37.30
40918;BME280;26644;50.248;19.032;2023-03-01T10:58:17;99151.34;;;6.39;37.52
40918;BME280;26644;50.248;19.032;2023-03-01T11:01:29;99136.00;;;6.26;38.09
40918;BME280;26644;50.248;19.032;2023-03-01T11:04:37;99132.66;;;6.13;38.22
40918;BME280;26644;50.248;19.032;2023-03-01T11:07:51;99125.41;;;6.06;38.57
40918;BME280;26644;50.248;19.032;2023-03-01T11:14:37;99128.13;;;6.06;38.49
40918;BME280;26644;50.248;19.032;2023-03-01T11:17:51;99117.44;;;5.93;38.22
40918;BME280;26644;50.248;19.032;2023-03-01T11:20:59;99122.59;;;5.83;38.24
40918;BME280;26644;50.248;19.032;2023-03-01T11:24:14;99113.59;;;5.82;38.42
40918;BME280;26644;50.248;19.032;2023-03-01T11:27:24;99100.69;;;5.89;38.27
40918;BME280;26644;50.248;19.032;2023-03-01T11:30:48;99091.75;;;5.70;37.88
40918;BME280;26644;50.248;19.032;2023-03-01T11:34:06;99103.72;;;5.69;38.06
40918;BME280;26644;50.248;19.032;2023-03-01T11:37:23;99079.00;;;5.52;38.11
40918;BME280;26644;50.248;19.032;2023-03-01T11:40:44;99104.97;;;5.55;38.46
40918;BME280;26644;50.248;19.032;2023-03-01T11:43:59;99102.31;;;5.48;38.79
40918;BME280;26644;50.248;19.032;2023-03-01T11:47:25;99096.00;;;5.36;39.27
40918;BME280;26644;50.248;19.032;2023-03-01T11:50:47;99098.34;;;5.32;39.37
40918;BME280;26644;50.248;19.032;2023-03-01T11:54:13;99094.94;;;5.37;39.30
40918;BME280;26644;50.248;19.032;2023-03-01T11:57:57;99071.97;;;5.33;39.58
40918;BME280;26644;50.248;19.032;2023-03-01T12:01:24;99076.03;;;5.42;39.35
40918;BME280;26644;50.248;19.032;2023-03-01T12:05:03;99081.09;;;5.38;39.20
40918;BME280;26644;50.248;19.032;2023-03-01T12:08:32;99079.34;;;5.44;39.39
40918;BME280;26644;50.248;19.032;2023-03-01T12:12:00;99069.06;;;5.46;38.85
40918;BME280;26644;50.248;19.032;2023-03-01T12:19:24;99065.13;;;5.42;38.59
40918;BME280;26644;50.248;19.032;2023-03-01T12:22:49;99062.31;;;5.49;38.59
40918;BME280;26644;50.248;19.032;2023-03-01T12:26:15;99051.19;;;5.50;37.98
40918;BME280;26644;50.248;19.032;2023-03-01T12:29:28;99055.34;;;5.53;37.67
40918;BME280;26644;50.248;19.032;2023-03-01T12:32:51;99049.75;;;5.48;37.66
40918;BME280;26644;50.248;19.032;2023-03-01T12:36:27;99046.94;;;5.54;37.41
40918;BME280;26644;50.248;19.032;2023-03-01T12:39:57;99042.78;;;5.52;37.18
40918;BME280;26644;50.248;19.032;2023-03-01T12:43:31;99037.19;;;5.47;37.39
40918;BME280;26644;50.248;19.032;2023-03-01T12:47:01;99032.06;;;5.38;37.18
40918;BME280;26644;50.248;19.032;2023-03-01T12:50:22;99040.63;;;5.42;37.69
40918;BME280;26644;50.248;19.032;2023-03-01T12:53:34;98970.75;;;5.05;37.86
40918;BME280;26644;50.248;19.032;2023-03-01T12:56:45;99012.78;;;5.40;38.04
40918;BME280;26644;50.248;19.032;2023-03-01T13:00:17;99011.63;;;5.48;37.82
40918;BME280;26644;50.248;19.032;2023-03-01T13:03:47;99025.00;;;5.49;37.80
40918;BME280;26644;50.248;19.032;2023-03-01T13:07:27;99015.44;;;5.58;37.51
40918;BME280;26644;50.248;19.032;2023-03-01T13:10:46;99012.38;;;5.67;37.39
40918;BME280;26644;50.248;19.032;2023-03-01T13:14:35;99005.19;;;5.72;37.27
40918;BME280;26644;50.248;19.032;2023-03-01T13:17:45;99015.59;;;5.75;36.41
40918;BME280;26644;50.248;19.032;2023-03-01T13:20:52;99010.53;;;5.79;35.24
40918;BME280;26644;50.248;19.032;2023-03-01T13:24:02;98994.19;;;5.79;35.50
40918;BME280;26644;50.248;19.032;2023-03-01T13:27:23;99005.09;;;5.91;35.12
40918;BME280;26644;50.248;19.032;2023-03-01T13:30:42;99012.81;;;5.94;35.37
40918;BME280;26644;50.248;19.032;2023-03-01T13:33:49;99005.09;;;5.91;35.44
40918;BME280;26644;50.248;19.032;2023-03-01T13:37:09;98997.50;;;5.93;35.00
40918;BME280;26644;50.248;19.032;2023-03-01T13:44:12;98998.00;;;6.02;34.26
40918;BME280;26644;50.248;19.032;2023-03-01T13:47:27;98985.91;;;5.98;34.28
40918;BME280;26644;50.248;19.032;2023-03-01T13:50:38;98984.25;;;6.08;33.90
40918;BME280;26644;50.248;19.032;2023-03-01T13:53:53;98997.66;;;6.10;33.86
40918;BME280;26644;50.248;19.032;2023-03-01T13:57:03;98992.81;;;6.12;34.23
40918;BME280;26644;50.248;19.032;2023-03-01T14:00:25;98991.72;;;6.13;34.05
40918;BME280;26644;50.248;19.032;2023-03-01T14:03:42;98979.16;;;6.12;34.12
40918;BME280;26644;50.248;19.032;2023-03-01T14:06:47;98977.88;;;6.15;34.13
40918;BME280;26644;50.248;19.032;2023-03-01T14:09:55;98973.47;;;6.14;34.47
40918;BME280;26644;50.248;19.032;2023-03-01T14:13:26;98973.34;;;6.20;34.70
40918;BME280;26644;50.248;19.032;2023-03-01T14:16:53;98975.34;;;6.25;34.90
40918;BME280;26644;50.248;19.032;2023-03-01T14:20:17;98976.53;;;6.29;34.67
40918;BME280;26644;50.248;19.032;2023-03-01T14:23:24;98966.34;;;6.24;34.68
40918;BME280;26644;50.248;19.032;2023-03-01T14:26:37;98961.38;;;6.21;34.71
40918;BME280;26644;50.248;19.032;2023-03-01T14:29:55;98965.63;;;6.29;34.67
40918;BME280;26644;50.248;19.032;2023-03-01T14:33:05;98958.28;;;6.30;34.21
40918;BME280;26644;50.248;19.032;2023-03-01T14:36:27;98942.88;;;6.23;34.24
40918;BME280;26644;50.248;19.032;2023-03-01T14:39:34;98947.63;;;6.28;34.47
40918;BME280;26644;50.248;19.032;2023-03-01T14:42:39;98939.22;;;6.18;34.30
40918;BME280;26644;50.248;19.032;2023-03-01T14:45:50;98950.00;;;6.24;34.47
40918;BME280;26644;50.248;19.032;2023-03-01T14:49:02;98945.03;;;6.21;34.19
40918;BME280;26644;50.248;19.032;2023-03-01T14:52:20;98951.28;;;6.22;34.37
40918;BME280;26644;50.248;19.032;2023-03-01T14:55:30;98947.50;;;6.23;34.28
40918;BME280;26644;50.248;19.032;2023-03-01T14:58:39;98948.06;;;6.25;34.26
40918;BME280;26644;50.248;19.032;2023-03-01T15:01:48;98950.34;;;6.28;34.28
40918;BME280;26644;50.248;19.032;2023-03-01T15:04:57;98949.75;;;6.26;34.11
40918;BME280;26644;50.248;19.032;2023-03-01T15:08:06;98936.09;;;6.26;34.13
40918;BME280;26644;50.248;19.032;2023-03-01T15:11:24;98925.34;;;6.19;34.38
40918;BME280;26644;50.248;19.032;2023-03-01T15:14:43;98939.66;;;6.26;34.55
40918;BME280;26644;50.248;19.032;2023-03-01T15:17:56;98932.44;;;6.20;34.67
40918;BME280;26644;50.248;19.032;2023-03-01T15:21:13;98940.75;;;6.25;34.87
40918;BME280;26644;50.248;19.032;2023-03-01T15:24:25;98938.47;;;6.22;35.13
40918;BME280;26644;50.248;19.032;2023-03-01T15:27:33;98938.34;;;6.17;34.89
40918;BME280;26644;50.248;19.032;2023-03-01T15:30:44;98937.66;;;6.10;35.20
40918;BME280;26644;50.248;19.032;2023-03-01T15:33:52;98934.00;;;6.04;35.60
40918;BME280;26644;50.248;19.032;2023-03-01T15:37:39;98932.34;;;6.03;35.74
40918;BME280;26644;50.248;19.032;2023-03-01T15:40:50;98928.19;;;6.01;35.85
40918;BME280;26644;50.248;19.032;2023-03-01T15:43:57;98935.75;;;5.99;36.18
40918;BME280;26644;50.248;19.032;2023-03-01T15:47:24;98922.63;;;5.95;36.17
40918;BME280;26644;50.248;19.032;2023-03-01T15:50:36;98927.69;;;5.92;36.55
40918;BME280;26644;50.248;19.032;2023-03-01T15:53:46;98933.38;;;5.90;36.65
40918;BME280;26644;50.248;19.032;2023-03-01T15:56:55;98931.16;;;5.87;36.53
40918;BME280;26644;50.248;19.032;2023-03-01T16:00:00;98940.38;;;5.86;36.81
40918;BME280;26644;50.248;19.032;2023-03-01T16:03:13;98932.94;;;5.82;36.88
40918;BME280;26644;50.248;19.032;2023-03-01T16:06:25;98932.56;;;5.78;37.01
40918;BME280;26644;50.248;19.032;2023-03-01T16:09:31;98922.94;;;5.64;37.30
40918;BME280;26644;50.248;19.032;2023-03-01T16:12:36;98940.72;;;5.66;37.64
40918;BME280;26644;50.248;19.032;2023-03-01T16:15:42;98942.75;;;5.59;37.39
40918;BME280;26644;50.248;19.032;2023-03-01T16:18:47;98948.06;;;5.54;37.73
40918;BME280;26644;50.248;19.032;2023-03-01T16:21:56;98948.75;;;5.49;37.77
40918;BME280;26644;50.248;19.032;2023-03-01T16:25:02;98950.03;;;5.47;37.76
40918;BME280;26644;50.248;19.032;2023-03-01T16:28:08;98945.75;;;5.39;37.94
40918;BME280;26644;50.248;19.032;2023-03-01T16:31:17;98946.47;;;5.34;38.17
40918;BME280;26644;50.248;19.032;2023-03-01T16:34:24;98953.88;;;5.27;38.44
40918;BME280;26644;50.248;19.032;2023-03-01T16:37:33;98949.38;;;5.21;38.69
40918;BME280;26644;50.248;19.032;2023-03-01T16:40:47;98962.25;;;5.14;38.23
40918;BME280;26644;50.248;19.032;2023-03-01T16:43:53;98959.63;;;5.07;37.86
40918;BME280;26644;50.248;19.032;2023-03-01T16:46:59;98962.19;;;5.02;37.76
40918;BME280;26644;50.248;19.032;2023-03-01T16:50:05;98960.19;;;4.97;37.45
40918;BME280;26644;50.248;19.032;2023-03-01T16:53:13;98964.66;;;4.91;37.13
40918;BME280;26644;50.248;19.032;2023-03-01T16:56:19;98936.41;;;4.74;36.90